Cumberland Foreside, ME

11:24 PM EDT on March 31, 2015 (GMT -0400)
Wiscasset | | Change Station
CLOSE
Current Station
Airport
Location: Wiscasset,
Elevation: 69 ft
Nearby Weather Stations

Elev 69 ft 43.96 °N, 69.71 °W | Updated 31 minutes ago

Partly Cloudy
Partly Cloudy
33 °F
Feels Like 30 °F
N
4
Wind Variable Wind from Variable

Today
High -- | Low -- °F
--% Chance of Precip.
Yesterday
High -- | Low -- °F
Precip. -- in
6:24 AM 7:06 PM
Waxing Gibbous, 90% visible
Pressure 29.81 in
Visibility 10.0 miles
Clouds Clear
Windchill 30 °F
Dew Point 6 °F
Humidity 32%
Rainfall 0.00 in
Snow Depth Not available.
UV 0 out of 12
Pollen 5.70 out of 12
Air Quality Not available.
Flu Activity Not available.
METAR KIWI 010253Z AUTO VRB03KT 10SM CLR 01/M14 A2981 RMK AO2 SLP093 T00061144 51021

More Conditions Fewer Conditions

Pressure 29.81 in
Visibility 10.0 miles
Clouds Clear
Windchill 30 °F
Dew Point 6 °F
Humidity 32%
Rainfall 0.00 in
Snow Depth Not available.
UV 0 out of 12
Pollen 5.70 out of 12
Air Quality Not available.
Flu Activity Not available.
METAR KIWI 010253Z AUTO VRB03KT 10SM CLR 01/M14 A2981 RMK AO2 SLP093 T00061144 51021

More Conditions Fewer Conditions

10-Day Weather Forecast

Almanac

Astronomy

Mar. 31, 2015 Rise Set
Actual Time
Civil Twilight
Nautical Twilight
Astronomical Twilight
Moon
Length of Visible Light
Length of Day
Tomorrow will be .
, % of the Moon is Illuminated

Today's Extremes

State Highs State Lows

Community

WunderPhotos

Upload Photos

1,809,892 photos uploaded!

WunderBlogs® & News

Nearby

Air Quality

  Air Quality AQ Index Pollutant
Not available.

Snow Depth

Station Depth Elevation

Earthquake Activity

City Distance Mag. Time & Date
Minimum magnitude displayed is 2.5.

Coastal Water Temperatures

Place Temperature

Stations

Nearby Weather Stations

Station Location Temp. Windchill Dew Point Humidity Wind Precip. Elev Updated Type